sensor_id;sensor_type;location;lat;lon;timestamp;temperature;humidity
5276;DHT22;2661;50.786;12.728;2023-02-10T00:01:48;-4.30;99.90
5276;DHT22;2661;50.786;12.728;2023-02-10T00:04:14;-4.20;99.90
5276;DHT22;2661;50.786;12.728;2023-02-10T00:06:41;-4.30;99.90
5276;DHT22;2661;50.786;12.728;2023-02-10T00:09:09;-4.40;99.90
5276;DHT22;2661;50.786;12.728;2023-02-10T00:11:37;-4.40;99.90
5276;DHT22;2661;50.786;12.728;2023-02-10T00:14:22;-4.40;99.90
5276;DHT22;2661;50.786;12.728;2023-02-10T00:16:49;-4.40;99.90
5276;DHT22;2661;50.786;12.728;2023-02-10T00:19:16;-4.30;99.90
5276;DHT22;2661;50.786;12.728;2023-02-10T00:21:43;-4.20;99.90
5276;DHT22;2661;50.786;12.728;2023-02-10T00:24:09;-4.30;99.90
5276;DHT22;2661;50.786;12.728;2023-02-10T00:26:36;-4.30;99.90
5276;DHT22;2661;50.786;12.728;2023-02-10T00:29:03;-4.30;99.90
5276;DHT22;2661;50.786;12.728;2023-02-10T00:31:29;-4.30;99.90
5276;DHT22;2661;50.786;12.728;2023-02-10T00:33:56;-4.40;99.90
5276;DHT22;2661;50.786;12.728;2023-02-10T00:36:23;-4.50;99.90
5276;DHT22;2661;50.786;12.728;2023-02-10T00:38:51;-4.50;99.90
5276;DHT22;2661;50.786;12.728;2023-02-10T00:41:19;-4.60;99.90
5276;DHT22;2661;50.786;12.728;2023-02-10T00:43:45;-4.70;99.90
5276;DHT22;2661;50.786;12.728;2023-02-10T00:46:12;-4.70;99.90
5276;DHT22;2661;50.786;12.728;2023-02-10T00:48:41;-4.80;99.90
5276;DHT22;2661;50.786;12.728;2023-02-10T00:51:08;-4.80;99.90
5276;DHT22;2661;50.786;12.728;2023-02-10T00:53:35;-4.70;99.90
5276;DHT22;2661;50.786;12.728;2023-02-10T00:56:02;-4.70;99.90
5276;DHT22;2661;50.786;12.728;2023-02-10T00:58:28;-4.80;99.90
5276;DHT22;2661;50.786;12.728;2023-02-10T01:00:56;-4.90;99.90
5276;DHT22;2661;50.786;12.728;2023-02-10T01:03:23;-5.00;99.90
5276;DHT22;2661;50.786;12.728;2023-02-10T01:05:49;-5.00;99.90
5276;DHT22;2661;50.786;12.728;2023-02-10T01:08:16;-5.00;99.90
5276;DHT22;2661;50.786;12.728;2023-02-10T01:10:43;-5.00;99.90
5276;DHT22;2661;50.786;12.728;2023-02-10T01:13:10;-5.00;99.90
5276;DHT22;2661;50.786;12.728;2023-02-10T01:15:43;-5.10;99.90
5276;DHT22;2661;50.786;12.728;2023-02-10T01:18:11;-5.20;99.90
5276;DHT22;2661;50.786;12.728;2023-02-10T01:20:41;-5.20;99.90
5276;DHT22;2661;50.786;12.728;2023-02-10T01:23:08;-5.10;99.90
5276;DHT22;2661;50.786;12.728;2023-02-10T01:25:35;-5.10;99.90
5276;DHT22;2661;50.786;12.728;2023-02-10T01:28:02;-5.20;99.90
5276;DHT22;2661;50.786;12.728;2023-02-10T01:30:29;-5.30;99.90
5276;DHT22;2661;50.786;12.728;2023-02-10T01:32:56;-5.30;99.90
5276;DHT22;2661;50.786;12.728;2023-02-10T01:35:23;-5.30;99.90
5276;DHT22;2661;50.786;12.728;2023-02-10T01:37:49;-5.30;99.90
5276;DHT22;2661;50.786;12.728;2023-02-10T01:40:16;-5.40;99.90
5276;DHT22;2661;50.786;12.728;2023-02-10T01:42:42;-5.30;99.90
5276;DHT22;2661;50.786;12.728;2023-02-10T01:45:17;-5.30;99.90
5276;DHT22;2661;50.786;12.728;2023-02-10T01:47:44;-5.40;99.90
5276;DHT22;2661;50.786;12.728;2023-02-10T01:50:12;-5.40;99.90
5276;DHT22;2661;50.786;12.728;2023-02-10T01:52:39;-5.30;99.90
5276;DHT22;2661;50.786;12.728;2023-02-10T01:55:06;-5.30;99.90
5276;DHT22;2661;50.786;12.728;2023-02-10T01:57:34;-5.30;99.90
5276;DHT22;2661;50.786;12.728;2023-02-10T02:00:01;-5.40;99.90
5276;DHT22;2661;50.786;12.728;2023-02-10T02:02:28;-5.20;99.90
5276;DHT22;2661;50.786;12.728;2023-02-10T02:04:59;-5.40;99.90
5276;DHT22;2661;50.786;12.728;2023-02-10T02:07:27;-5.40;99.90
5276;DHT22;2661;50.786;12.728;2023-02-10T02:09:55;-5.40;99.90
5276;DHT22;2661;50.786;12.728;2023-02-10T02:15:02;-5.40;99.90
5276;DHT22;2661;50.786;12.728;2023-02-10T02:17:38;-5.40;99.90
5276;DHT22;2661;50.786;12.728;2023-02-10T02:23:24;-5.40;99.90
5276;DHT22;2661;50.786;12.728;2023-02-10T02:26:02;-5.40;99.90
5276;DHT22;2661;50.786;12.728;2023-02-10T02:31:08;-5.60;99.90
5276;DHT22;2661;50.786;12.728;2023-02-10T02:36:07;-5.80;99.90
5276;DHT22;2661;50.786;12.728;2023-02-10T02:38:39;-5.80;99.90
5276;DHT22;2661;50.786;12.728;2023-02-10T02:41:06;-5.70;99.90
5276;DHT22;2661;50.786;12.728;2023-02-10T02:43:32;-5.70;99.90
5276;DHT22;2661;50.786;12.728;2023-02-10T02:46:03;-5.70;99.90
5276;DHT22;2661;50.786;12.728;2023-02-10T02:48:35;-5.70;99.90
5276;DHT22;2661;50.786;12.728;2023-02-10T02:51:08;-5.70;99.90
5276;DHT22;2661;50.786;12.728;2023-02-10T02:58:55;-5.60;99.90
5276;DHT22;2661;50.786;12.728;2023-02-10T03:01:28;-5.60;99.90
5276;DHT22;2661;50.786;12.728;2023-02-10T03:03:56;-5.60;99.90
5276;DHT22;2661;50.786;12.728;2023-02-10T03:06:23;-5.60;99.90
5276;DHT22;2661;50.786;12.728;2023-02-10T03:08:50;-5.50;99.90
5276;DHT22;2661;50.786;12.728;2023-02-10T03:14:46;-5.50;99.90
5276;DHT22;2661;50.786;12.728;2023-02-10T03:17:12;-5.40;99.90
5276;DHT22;2661;50.786;12.728;2023-02-10T03:19:39;-5.40;99.90
5276;DHT22;2661;50.786;12.728;2023-02-10T03:22:05;-5.40;99.90
5276;DHT22;2661;50.786;12.728;2023-02-10T03:24:32;-5.30;99.90
5276;DHT22;2661;50.786;12.728;2023-02-10T03:26:58;-5.30;99.90
5276;DHT22;2661;50.786;12.728;2023-02-10T03:29:25;-5.20;99.90
5276;DHT22;2661;50.786;12.728;2023-02-10T03:31:52;-5.00;99.90
5276;DHT22;2661;50.786;12.728;2023-02-10T03:34:18;-5.00;99.90
5276;DHT22;2661;50.786;12.728;2023-02-10T03:36:45;-5.00;99.90
5276;DHT22;2661;50.786;12.728;2023-02-10T03:39:11;-4.80;99.90
5276;DHT22;2661;50.786;12.728;2023-02-10T03:41:38;-4.70;99.90
5276;DHT22;2661;50.786;12.728;2023-02-10T03:44:05;-4.60;99.90
5276;DHT22;2661;50.786;12.728;2023-02-10T03:46:32;-4.60;99.90
5276;DHT22;2661;50.786;12.728;2023-02-10T03:48:59;-4.60;99.90
5276;DHT22;2661;50.786;12.728;2023-02-10T03:51:26;-4.60;99.90
5276;DHT22;2661;50.786;12.728;2023-02-10T03:53:52;-4.40;99.90
5276;DHT22;2661;50.786;12.728;2023-02-10T03:56:19;-4.40;99.90
5276;DHT22;2661;50.786;12.728;2023-02-10T03:58:45;-4.40;99.90
5276;DHT22;2661;50.786;12.728;2023-02-10T04:01:13;-4.30;99.90
5276;DHT22;2661;50.786;12.728;2023-02-10T04:03:40;-4.20;99.90
5276;DHT22;2661;50.786;12.728;2023-02-10T04:06:07;-4.20;99.90
5276;DHT22;2661;50.786;12.728;2023-02-10T04:08:34;-4.10;99.90
5276;DHT22;2661;50.786;12.728;2023-02-10T04:11:01;-4.00;99.90
5276;DHT22;2661;50.786;12.728;2023-02-10T04:13:27;-3.90;99.90
5276;DHT22;2661;50.786;12.728;2023-02-10T04:16:28;-3.70;99.90
5276;DHT22;2661;50.786;12.728;2023-02-10T04:18:50;-3.60;99.90
5276;DHT22;2661;50.786;12.728;2023-02-10T04:21:16;-3.50;99.90
5276;DHT22;2661;50.786;12.728;2023-02-10T04:23:43;-3.40;99.90
5276;DHT22;2661;50.786;12.728;2023-02-10T04:26:10;-3.40;99.90
5276;DHT22;2661;50.786;12.728;2023-02-10T04:28:36;-3.40;99.90
5276;DHT22;2661;50.786;12.728;2023-02-10T04:31:03;-3.30;99.90
5276;DHT22;2661;50.786;12.728;2023-02-10T04:33:31;-3.30;99.90
5276;DHT22;2661;50.786;12.728;2023-02-10T04:35:58;-3.20;99.90
5276;DHT22;2661;50.786;12.728;2023-02-10T04:38:25;-3.10;99.90
5276;DHT22;2661;50.786;12.728;2023-02-10T04:40:51;-3.00;99.90
5276;DHT22;2661;50.786;12.728;2023-02-10T04:43:18;-2.90;99.90
5276;DHT22;2661;50.786;12.728;2023-02-10T04:45:44;-2.90;99.90
5276;DHT22;2661;50.786;12.728;2023-02-10T04:48:12;-2.80;99.90
5276;DHT22;2661;50.786;12.728;2023-02-10T04:50:42;-2.70;99.90
5276;DHT22;2661;50.786;12.728;2023-02-10T04:53:08;-2.50;99.90
5276;DHT22;2661;50.786;12.728;2023-02-10T04:55:38;-2.50;99.90
5276;DHT22;2661;50.786;12.728;2023-02-10T04:58:05;-2.40;99.90
5276;DHT22;2661;50.786;12.728;2023-02-10T05:00:33;-2.40;99.90
5276;DHT22;2661;50.786;12.728;2023-02-10T05:02:59;-2.40;99.90
5276;DHT22;2661;50.786;12.728;2023-02-10T05:05:26;-2.40;99.90
5276;DHT22;2661;50.786;12.728;2023-02-10T05:07:53;-2.40;99.90
5276;DHT22;2661;50.786;12.728;2023-02-10T05:10:20;-2.30;99.90
5276;DHT22;2661;50.786;12.728;2023-02-10T05:12:47;-2.20;99.90
5276;DHT22;2661;50.786;12.728;2023-02-10T05:15:13;-2.20;99.90
5276;DHT22;2661;50.786;12.728;2023-02-10T05:17:40;-2.20;99.90
5276;DHT22;2661;50.786;12.728;2023-02-10T05:20:07;-2.10;99.90
5276;DHT22;2661;50.786;12.728;2023-02-10T05:22:34;-2.10;99.90
5276;DHT22;2661;50.786;12.728;2023-02-10T05:25:01;-2.10;99.90
5276;DHT22;2661;50.786;12.728;2023-02-10T05:27:27;-2.10;99.90
5276;DHT22;2661;50.786;12.728;2023-02-10T05:29:54;-2.10;99.90
5276;DHT22;2661;50.786;12.728;2023-02-10T05:32:21;-2.10;99.90
5276;DHT22;2661;50.786;12.728;2023-02-10T05:34:47;-2.00;99.90
5276;DHT22;2661;50.786;12.728;2023-02-10T05:37:14;-2.00;99.90
5276;DHT22;2661;50.786;12.728;2023-02-10T05:39:40;-2.00;99.90
5276;DHT22;2661;50.786;12.728;2023-02-10T05:42:07;-2.00;99.90
5276;DHT22;2661;50.786;12.728;2023-02-10T05:44:34;-1.90;99.90
5276;DHT22;2661;50.786;12.728;2023-02-10T05:47:00;-1.90;99.90
5276;DHT22;2661;50.786;12.728;2023-02-10T05:49:27;-1.90;99.90
5276;DHT22;2661;50.786;12.728;2023-02-10T05:51:54;-1.80;99.90
5276;DHT22;2661;50.786;12.728;2023-02-10T05:54:20;-1.80;99.90
5276;DHT22;2661;50.786;12.728;2023-02-10T05:56:48;-1.80;99.90
5276;DHT22;2661;50.786;12.728;2023-02-10T05:59:16;-1.80;99.90
5276;DHT22;2661;50.786;12.728;2023-02-10T06:01:42;-1.70;99.90
5276;DHT22;2661;50.786;12.728;2023-02-10T06:04:09;-1.70;99.90
5276;DHT22;2661;50.786;12.728;2023-02-10T06:06:36;-1.60;99.90
5276;DHT22;2661;50.786;12.728;2023-02-10T06:09:03;-1.60;99.90
5276;DHT22;2661;50.786;12.728;2023-02-10T06:11:30;-1.60;99.90
5276;DHT22;2661;50.786;12.728;2023-02-10T06:13:56;-1.60;99.90
5276;DHT22;2661;50.786;12.728;2023-02-10T06:16:23;-1.50;99.90
5276;DHT22;2661;50.786;12.728;2023-02-10T06:18:50;-1.50;99.90
5276;DHT22;2661;50.786;12.728;2023-02-10T06:21:16;-1.40;99.90
5276;DHT22;2661;50.786;12.728;2023-02-10T06:23:43;-1.40;99.90
5276;DHT22;2661;50.786;12.728;2023-02-10T06:26:10;-1.40;99.90
5276;DHT22;2661;50.786;12.728;2023-02-10T06:28:36;-1.30;99.90
5276;DHT22;2661;50.786;12.728;2023-02-10T06:31:03;-1.30;99.90
5276;DHT22;2661;50.786;12.728;2023-02-10T06:33:30;-1.30;99.90
5276;DHT22;2661;50.786;12.728;2023-02-10T06:35:56;-1.20;99.90
5276;DHT22;2661;50.786;12.728;2023-02-10T06:38:23;-1.20;99.90
5276;DHT22;2661;50.786;12.728;2023-02-10T06:40:49;-1.20;99.90
5276;DHT22;2661;50.786;12.728;2023-02-10T06:43:16;-1.20;99.90
5276;DHT22;2661;50.786;12.728;2023-02-10T06:45:43;-1.20;99.90
5276;DHT22;2661;50.786;12.728;2023-02-10T06:48:09;-1.20;99.90
5276;DHT22;2661;50.786;12.728;2023-02-10T06:50:36;-1.20;99.90
5276;DHT22;2661;50.786;12.728;2023-02-10T06:53:04;-1.10;99.90
5276;DHT22;2661;50.786;12.728;2023-02-10T06:55:31;-1.10;99.90
5276;DHT22;2661;50.786;12.728;2023-02-10T06:57:58;-1.00;99.90
5276;DHT22;2661;50.786;12.728;2023-02-10T07:00:25;-1.00;99.90
5276;DHT22;2661;50.786;12.728;2023-02-10T07:02:51;-1.10;99.90
5276;DHT22;2661;50.786;12.728;2023-02-10T07:05:18;-1.00;99.90
5276;DHT22;2661;50.786;12.728;2023-02-10T07:07:45;-0.90;99.90
5276;DHT22;2661;50.786;12.728;2023-02-10T07:10:12;-0.90;99.90
5276;DHT22;2661;50.786;12.728;2023-02-10T07:12:38;-0.80;99.90
5276;DHT22;2661;50.786;12.728;2023-02-10T07:15:05;-0.80;99.90
5276;DHT22;2661;50.786;12.728;2023-02-10T07:17:32;-0.80;99.90
5276;DHT22;2661;50.786;12.728;2023-02-10T07:19:58;-0.80;99.90
5276;DHT22;2661;50.786;12.728;2023-02-10T07:22:25;-0.70;99.90
5276;DHT22;2661;50.786;12.728;2023-02-10T07:24:52;-0.60;99.90
5276;DHT22;2661;50.786;12.728;2023-02-10T07:27:19;-0.60;99.90
5276;DHT22;2661;50.786;12.728;2023-02-10T07:29:45;-0.50;99.90
5276;DHT22;2661;50.786;12.728;2023-02-10T07:32:12;-0.50;99.90
5276;DHT22;2661;50.786;12.728;2023-02-10T07:34:38;-0.40;99.90
5276;DHT22;2661;50.786;12.728;2023-02-10T07:37:07;-0.30;99.90
5276;DHT22;2661;50.786;12.728;2023-02-10T07:39:33;-0.30;99.90
5276;DHT22;2661;50.786;12.728;2023-02-10T07:42:00;-0.30;99.90
5276;DHT22;2661;50.786;12.728;2023-02-10T07:44:27;-0.20;99.90
5276;DHT22;2661;50.786;12.728;2023-02-10T07:46:53;-0.20;99.90
5276;DHT22;2661;50.786;12.728;2023-02-10T07:49:25;-0.20;99.90
5276;DHT22;2661;50.786;12.728;2023-02-10T07:51:55;-0.10;99.90
5276;DHT22;2661;50.786;12.728;2023-02-10T07:54:21;-0.10;99.90
5276;DHT22;2661;50.786;12.728;2023-02-10T07:56:48;0.00;99.90
5276;DHT22;2661;50.786;12.728;2023-02-10T07:59:14;0.10;99.90
5276;DHT22;2661;50.786;12.728;2023-02-10T08:01:41;0.20;99.90
5276;DHT22;2661;50.786;12.728;2023-02-10T08:04:09;0.20;99.90
5276;DHT22;2661;50.786;12.728;2023-02-10T08:06:36;0.30;99.90
5276;DHT22;2661;50.786;12.728;2023-02-10T08:09:03;0.40;99.90
5276;DHT22;2661;50.786;12.728;2023-02-10T08:11:29;0.40;99.90
5276;DHT22;2661;50.786;12.728;2023-02-10T08:13:58;0.50;99.90
5276;DHT22;2661;50.786;12.728;2023-02-10T08:16:25;0.60;99.90
5276;DHT22;2661;50.786;12.728;2023-02-10T08:18:51;0.60;99.90
5276;DHT22;2661;50.786;12.728;2023-02-10T08:21:18;0.70;99.90
5276;DHT22;2661;50.786;12.728;2023-02-10T08:23:44;0.70;99.90
5276;DHT22;2661;50.786;12.728;2023-02-10T08:26:12;0.70;99.90
5276;DHT22;2661;50.786;12.728;2023-02-10T08:28:39;0.80;99.90
5276;DHT22;2661;50.786;12.728;2023-02-10T08:31:06;0.80;99.90
5276;DHT22;2661;50.786;12.728;2023-02-10T08:33:33;0.80;99.90
5276;DHT22;2661;50.786;12.728;2023-02-10T08:36:13;0.90;99.90
5276;DHT22;2661;50.786;12.728;2023-02-10T08:38:40;1.00;99.90
5276;DHT22;2661;50.786;12.728;2023-02-10T08:41:07;1.10;99.90
5276;DHT22;2661;50.786;12.728;2023-02-10T08:43:33;1.20;99.90
5276;DHT22;2661;50.786;12.728;2023-02-10T08:46:01;1.30;99.90
5276;DHT22;2661;50.786;12.728;2023-02-10T08:48:28;1.40;99.90
5276;DHT22;2661;50.786;12.728;2023-02-10T08:50:56;1.40;99.90
5276;DHT22;2661;50.786;12.728;2023-02-10T08:53:23;1.50;99.90
5276;DHT22;2661;50.786;12.728;2023-02-10T08:55:57;1.50;99.90
5276;DHT22;2661;50.786;12.728;2023-02-10T08:58:26;1.60;99.90
5276;DHT22;2661;50.786;12.728;2023-02-10T09:00:53;1.60;99.90
5276;DHT22;2661;50.786;12.728;2023-02-10T09:03:19;1.70;99.90
5276;DHT22;2661;50.786;12.728;2023-02-10T09:05:48;1.70;99.90
5276;DHT22;2661;50.786;12.728;2023-02-10T09:08:16;1.80;99.90
5276;DHT22;2661;50.786;12.728;2023-02-10T09:10:44;1.80;99.90
5276;DHT22;2661;50.786;12.728;2023-02-10T09:13:10;1.80;99.90
5276;DHT22;2661;50.786;12.728;2023-02-10T09:15:37;1.90;99.90
5276;DHT22;2661;50.786;12.728;2023-02-10T09:18:05;1.90;99.90
5276;DHT22;2661;50.786;12.728;2023-02-10T09:20:32;1.80;99.90
5276;DHT22;2661;50.786;12.728;2023-02-10T09:22:59;1.80;99.90
5276;DHT22;2661;50.786;12.728;2023-02-10T09:25:25;1.90;99.90
5276;DHT22;2661;50.786;12.728;2023-02-10T09:27:52;2.00;99.90
5276;DHT22;2661;50.786;12.728;2023-02-10T09:30:21;2.00;99.90
5276;DHT22;2661;50.786;12.728;2023-02-10T09:32:47;2.20;99.90
5276;DHT22;2661;50.786;12.728;2023-02-10T09:35:14;2.20;99.90
5276;DHT22;2661;50.786;12.728;2023-02-10T09:37:41;2.40;99.90
5276;DHT22;2661;50.786;12.728;2023-02-10T09:40:10;2.40;99.90
5276;DHT22;2661;50.786;12.728;2023-02-10T09:42:53;2.50;99.90
5276;DHT22;2661;50.786;12.728;2023-02-10T09:45:24;2.60;99.90
5276;DHT22;2661;50.786;12.728;2023-02-10T09:47:52;2.50;99.90
5276;DHT22;2661;50.786;12.728;2023-02-10T09:53:13;2.60;99.90
5276;DHT22;2661;50.786;12.728;2023-02-10T09:55:48;2.50;99.90
5276;DHT22;2661;50.786;12.728;2023-02-10T09:58:18;2.50;99.90
5276;DHT22;2661;50.786;12.728;2023-02-10T10:00:46;2.60;99.90
5276;DHT22;2661;50.786;12.728;2023-02-10T10:03:21;2.60;99.90
5276;DHT22;2661;50.786;12.728;2023-02-10T10:08:22;2.50;99.90
5276;DHT22;2661;50.786;12.728;2023-02-10T10:10:49;2.50;99.90
5276;DHT22;2661;50.786;12.728;2023-02-10T10:13:21;2.60;99.90
5276;DHT22;2661;50.786;12.728;2023-02-10T10:15:59;2.60;99.90
5276;DHT22;2661;50.786;12.728;2023-02-10T10:18:40;2.60;99.90
5276;DHT22;2661;50.786;12.728;2023-02-10T10:21:15;2.60;99.90
5276;DHT22;2661;50.786;12.728;2023-02-10T10:23:55;2.70;99.90
5276;DHT22;2661;50.786;12.728;2023-02-10T10:29:13;2.70;99.90
5276;DHT22;2661;50.786;12.728;2023-02-10T10:31:45;2.60;99.90
5276;DHT22;2661;50.786;12.728;2023-02-10T10:34:17;2.60;99.90
5276;DHT22;2661;50.786;12.728;2023-02-10T10:36:45;2.60;99.90
5276;DHT22;2661;50.786;12.728;2023-02-10T10:41:59;2.50;99.90
5276;DHT22;2661;50.786;12.728;2023-02-10T10:44:26;2.50;99.90
5276;DHT22;2661;50.786;12.728;2023-02-10T10:47:13;2.50;99.90
5276;DHT22;2661;50.786;12.728;2023-02-10T10:49:41;2.50;99.90
5276;DHT22;2661;50.786;12.728;2023-02-10T10:52:19;2.40;99.90
5276;DHT22;2661;50.786;12.728;2023-02-10T10:54:49;2.30;99.90
5276;DHT22;2661;50.786;12.728;2023-02-10T10:57:16;2.20;99.90
5276;DHT22;2661;50.786;12.728;2023-02-10T10:59:45;2.30;99.90
5276;DHT22;2661;50.786;12.728;2023-02-10T11:02:16;2.30;99.90
5276;DHT22;2661;50.786;12.728;2023-02-10T11:04:44;2.30;99.90
5276;DHT22;2661;50.786;12.728;2023-02-10T11:07:16;2.30;99.90
5276;DHT22;2661;50.786;12.728;2023-02-10T11:09:48;2.30;99.90
5276;DHT22;2661;50.786;12.728;2023-02-10T11:12:33;2.40;99.90
5276;DHT22;2661;50.786;12.728;2023-02-10T11:15:01;2.40;99.90
5276;DHT22;2661;50.786;12.728;2023-02-10T11:17:30;2.50;99.90
5276;DHT22;2661;50.786;12.728;2023-02-10T11:19:59;2.60;99.90
5276;DHT22;2661;50.786;12.728;2023-02-10T11:22:26;2.60;99.90
5276;DHT22;2661;50.786;12.728;2023-02-10T11:24:54;2.70;99.90
5276;DHT22;2661;50.786;12.728;2023-02-10T11:27:21;2.70;99.90
5276;DHT22;2661;50.786;12.728;2023-02-10T11:29:52;2.80;99.90
5276;DHT22;2661;50.786;12.728;2023-02-10T11:32:19;2.90;99.90
5276;DHT22;2661;50.786;12.728;2023-02-10T11:34:47;3.00;99.90
5276;DHT22;2661;50.786;12.728;2023-02-10T11:37:20;3.10;99.90
5276;DHT22;2661;50.786;12.728;2023-02-10T11:39:47;3.10;99.90
5276;DHT22;2661;50.786;12.728;2023-02-10T11:42:17;3.30;99.90
5276;DHT22;2661;50.786;12.728;2023-02-10T11:44:57;3.50;99.90
5276;DHT22;2661;50.786;12.728;2023-02-10T11:47:26;3.60;99.90
5276;DHT22;2661;50.786;12.728;2023-02-10T11:49:53;3.60;99.90
5276;DHT22;2661;50.786;12.728;2023-02-10T11:52:20;3.60;99.90
5276;DHT22;2661;50.786;12.728;2023-02-10T11:54:49;3.60;99.90
5276;DHT22;2661;50.786;12.728;2023-02-10T12:03:01;3.60;99.90
5276;DHT22;2661;50.786;12.728;2023-02-10T12:05:54;3.70;99.90
5276;DHT22;2661;50.786;12.728;2023-02-10T12:08:33;3.70;99.90
5276;DHT22;2661;50.786;12.728;2023-02-10T12:11:06;3.80;99.90
5276;DHT22;2661;50.786;12.728;2023-02-10T12:13:44;3.70;99.90
5276;DHT22;2661;50.786;12.728;2023-02-10T12:16:18;3.70;99.90
5276;DHT22;2661;50.786;12.728;2023-02-10T12:21:23;3.80;99.90
5276;DHT22;2661;50.786;12.728;2023-02-10T12:26:43;3.70;99.90
5276;DHT22;2661;50.786;12.728;2023-02-10T12:34:54;3.70;99.90
5276;DHT22;2661;50.786;12.728;2023-02-10T12:40:17;3.50;99.90
5276;DHT22;2661;50.786;12.728;2023-02-10T12:45:42;3.30;99.90
5276;DHT22;2661;50.786;12.728;2023-02-10T12:51:28;3.30;99.90
5276;DHT22;2661;50.786;12.728;2023-02-10T12:53:59;3.30;99.90
5276;DHT22;2661;50.786;12.728;2023-02-10T12:56:30;3.20;99.90
5276;DHT22;2661;50.786;12.728;2023-02-10T12:59:02;3.20;99.90
5276;DHT22;2661;50.786;12.728;2023-02-10T13:01:33;3.30;99.90
5276;DHT22;2661;50.786;12.728;2023-02-10T13:04:07;3.30;99.90
5276;DHT22;2661;50.786;12.728;2023-02-10T13:09:09;3.30;99.90
5276;DHT22;2661;50.786;12.728;2023-02-10T13:11:42;3.30;99.90
5276;DHT22;2661;50.786;12.728;2023-02-10T13:14:13;3.30;99.90
5276;DHT22;2661;50.786;12.728;2023-02-10T13:16:40;3.10;99.90
5276;DHT22;2661;50.786;12.728;2023-02-10T13:21:51;3.00;99.90
5276;DHT22;2661;50.786;12.728;2023-02-10T13:24:19;2.90;99.90
5276;DHT22;2661;50.786;12.728;2023-02-10T13:29:38;2.90;99.90
5276;DHT22;2661;50.786;12.728;2023-02-10T13:32:14;2.80;99.90
5276;DHT22;2661;50.786;12.728;2023-02-10T13:34:44;2.70;99.90
5276;DHT22;2661;50.786;12.728;2023-02-10T13:37:20;2.70;99.90
5276;DHT22;2661;50.786;12.728;2023-02-10T13:39:50;2.60;99.90
5276;DHT22;2661;50.786;12.728;2023-02-10T13:42:20;2.60;99.90
5276;DHT22;2661;50.786;12.728;2023-02-10T13:50:04;2.50;99.90
5276;DHT22;2661;50.786;12.728;2023-02-10T13:52:33;2.60;99.90
5276;DHT22;2661;50.786;12.728;2023-02-10T13:55:03;2.70;99.90
5276;DHT22;2661;50.786;12.728;2023-02-10T14:00:47;2.90;99.90
5276;DHT22;2661;50.786;12.728;2023-02-10T14:05:54;2.90;99.90
5276;DHT22;2661;50.786;12.728;2023-02-10T14:08:25;3.00;99.90
5276;DHT22;2661;50.786;12.728;2023-02-10T14:10:56;3.00;99.90
5276;DHT22;2661;50.786;12.728;2023-02-10T14:13:26;3.10;99.90
5276;DHT22;2661;50.786;12.728;2023-02-10T14:15:55;3.10;99.90
5276;DHT22;2661;50.786;12.728;2023-02-10T14:18:23;3.20;99.90
5276;DHT22;2661;50.786;12.728;2023-02-10T14:21:09;3.30;99.90
5276;DHT22;2661;50.786;12.728;2023-02-10T14:23:37;3.30;99.90
5276;DHT22;2661;50.786;12.728;2023-02-10T14:26:05;3.40;99.90
5276;DHT22;2661;50.786;12.728;2023-02-10T14:28:34;3.30;99.90
5276;DHT22;2661;50.786;12.728;2023-02-10T14:31:18;3.40;99.90
5276;DHT22;2661;50.786;12.728;2023-02-10T14:33:56;3.30;99.90
5276;DHT22;2661;50.786;12.728;2023-02-10T14:36:23;3.40;99.90
5276;DHT22;2661;50.786;12.728;2023-02-10T14:38:51;3.40;99.90
5276;DHT22;2661;50.786;12.728;2023-02-10T14:41:18;3.40;99.90
5276;DHT22;2661;50.786;12.728;2023-02-10T14:43:47;3.30;99.90
5276;DHT22;2661;50.786;12.728;2023-02-10T14:48:48;3.20;99.90
5276;DHT22;2661;50.786;12.728;2023-02-10T14:51:22;3.00;99.90
5276;DHT22;2661;50.786;12.728;2023-02-10T14:53:49;3.00;99.90
5276;DHT22;2661;50.786;12.728;2023-02-10T14:56:22;2.90;99.90
5276;DHT22;2661;50.786;12.728;2023-02-10T14:58:49;2.90;99.90
5276;DHT22;2661;50.786;12.728;2023-02-10T15:01:30;2.90;99.90
5276;DHT22;2661;50.786;12.728;2023-02-10T15:03:58;2.80;99.90
5276;DHT22;2661;50.786;12.728;2023-02-10T15:06:27;2.80;99.90
5276;DHT22;2661;50.786;12.728;2023-02-10T15:08:55;2.80;99.90
5276;DHT22;2661;50.786;12.728;2023-02-10T15:11:29;2.70;99.90
5276;DHT22;2661;50.786;12.728;2023-02-10T15:14:20;2.70;99.90
5276;DHT22;2661;50.786;12.728;2023-02-10T15:16:47;2.60;99.90
5276;DHT22;2661;50.786;12.728;2023-02-10T15:19:15;2.60;99.90
5276;DHT22;2661;50.786;12.728;2023-02-10T15:21:42;2.60;99.90
5276;DHT22;2661;50.786;12.728;2023-02-10T15:24:26;2.60;99.90
5276;DHT22;2661;50.786;12.728;2023-02-10T15:26:53;2.50;99.90
5276;DHT22;2661;50.786;12.728;2023-02-10T15:29:20;2.50;99.90
5276;DHT22;2661;50.786;12.728;2023-02-10T15:31:54;2.40;99.90
5276;DHT22;2661;50.786;12.728;2023-02-10T15:34:25;2.30;99.90
5276;DHT22;2661;50.786;12.728;2023-02-10T15:36:57;2.20;99.90
5276;DHT22;2661;50.786;12.728;2023-02-10T15:39:26;2.10;99.90
5276;DHT22;2661;50.786;12.728;2023-02-10T15:44:33;1.90;99.90
5276;DHT22;2661;50.786;12.728;2023-02-10T15:47:17;1.90;99.90
5276;DHT22;2661;50.786;12.728;2023-02-10T15:49:46;1.80;99.90
5276;DHT22;2661;50.786;12.728;2023-02-10T15:52:18;1.70;99.90
5276;DHT22;2661;50.786;12.728;2023-02-10T15:54:45;1.70;99.90
5276;DHT22;2661;50.786;12.728;2023-02-10T15:57:14;1.60;99.90
5276;DHT22;2661;50.786;12.728;2023-02-10T16:02:48;1.40;99.90
5276;DHT22;2661;50.786;12.728;2023-02-10T16:05:15;1.30;99.90
5276;DHT22;2661;50.786;12.728;2023-02-10T16:07:42;1.20;99.90
5276;DHT22;2661;50.786;12.728;2023-02-10T16:10:13;1.10;99.90
5276;DHT22;2661;50.786;12.728;2023-02-10T16:12:40;1.00;99.90
5276;DHT22;2661;50.786;12.728;2023-02-10T16:15:08;0.90;99.90
5276;DHT22;2661;50.786;12.728;2023-02-10T16:17:38;0.80;99.90
5276;DHT22;2661;50.786;12.728;2023-02-10T16:20:05;0.70;99.90
5276;DHT22;2661;50.786;12.728;2023-02-10T16:22:32;0.60;99.90
5276;DHT22;2661;50.786;12.728;2023-02-10T16:24:58;0.60;99.90
5276;DHT22;2661;50.786;12.728;2023-02-10T16:27:25;0.60;99.90
5276;DHT22;2661;50.786;12.728;2023-02-10T16:29:51;0.50;99.90
5276;DHT22;2661;50.786;12.728;2023-02-10T16:32:18;0.40;99.90
5276;DHT22;2661;50.786;12.728;2023-02-10T16:34:44;0.40;99.90
5276;DHT22;2661;50.786;12.728;2023-02-10T16:37:17;0.40;99.90
5276;DHT22;2661;50.786;12.728;2023-02-10T16:39:43;0.30;99.90
5276;DHT22;2661;50.786;12.728;2023-02-10T16:42:10;0.30;99.90
5276;DHT22;2661;50.786;12.728;2023-02-10T16:44:37;0.20;99.90
5276;DHT22;2661;50.786;12.728;2023-02-10T16:47:03;0.20;99.90
5276;DHT22;2661;50.786;12.728;2023-02-10T16:49:30;0.20;99.90
5276;DHT22;2661;50.786;12.728;2023-02-10T16:51:56;0.20;99.90
5276;DHT22;2661;50.786;12.728;2023-02-10T16:54:23;0.20;99.90
5276;DHT22;2661;50.786;12.728;2023-02-10T16:56:50;0.20;99.90
5276;DHT22;2661;50.786;12.728;2023-02-10T16:59:17;0.20;99.90
5276;DHT22;2661;50.786;12.728;2023-02-10T17:01:44;0.20;99.90
5276;DHT22;2661;50.786;12.728;2023-02-10T17:04:11;0.20;99.90
5276;DHT22;2661;50.786;12.728;2023-02-10T17:06:40;0.30;99.90
5276;DHT22;2661;50.786;12.728;2023-02-10T17:09:09;0.40;99.90
5276;DHT22;2661;50.786;12.728;2023-02-10T17:11:38;0.40;99.90
5276;DHT22;2661;50.786;12.728;2023-02-10T17:14:05;0.50;99.90
5276;DHT22;2661;50.786;12.728;2023-02-10T17:16:32;0.50;99.90
5276;DHT22;2661;50.786;12.728;2023-02-10T17:19:01;0.40;99.90
5276;DHT22;2661;50.786;12.728;2023-02-10T17:21:28;0.40;99.90
5276;DHT22;2661;50.786;12.728;2023-02-10T17:23:54;0.60;99.90
5276;DHT22;2661;50.786;12.728;2023-02-10T17:26:21;0.60;99.90
5276;DHT22;2661;50.786;12.728;2023-02-10T17:28:47;0.80;99.90